Time;durP1;ratioP1;P1;durP2;ratioP2;P2;SDS_P1;SDS_P2;PMS_P1;PMS_P2;Temp;Humidity;BMP_temperature;BMP_pressure;BME280_temperature;BME280_humidity;BME280_pressure;Samples;Min_cycle;Max_cycle;Signal;HPM_P1;HPM_P2
2021/11/01 00:01:42;;;;;;;;;;;23.40;49.40;;;;;;1536326;76;1176;-67
2021/11/01 00:03:44;;;;;;;;;;;23.30;49.50;;;;;;1533696;76;1937;-66
2021/11/01 00:05:47;;;;;;;;;;;23.30;49.40;;;;;;1532560;76;792;-66
2021/11/01 00:07:49;;;;;;;;;;;23.30;49.60;;;;;;1531818;76;646;-65
2021/11/01 00:09:51;;;;;;;;;;;23.30;49.40;;;;;;1533079;76;744;-66
2021/11/01 00:11:52;;;;;;;;;;;23.30;49.50;;;;;;1531479;75;1134;-67
2021/11/01 00:13:54;;;;;;;;;;;23.20;49.40;;;;;;1533547;76;686;-66
2021/11/01 00:15:56;;;;;;;;;;;23.20;49.30;;;;;;1531505;76;782;-65
2021/11/01 00:17:58;;;;;;;;;;;23.20;49.40;;;;;;1537437;76;829;-66
2021/11/01 00:20:00;;;;;;;;;;;23.30;49.60;;;;;;1532104;76;718;-64
2021/11/01 00:22:02;;;;;;;;;;;23.20;49.80;;;;;;1532306;76;1194;-64
2021/11/01 00:24:04;;;;;;;;;;;23.20;49.80;;;;;;1531621;76;1934;-64
2021/11/01 00:26:06;;;;;;;;;;;23.30;49.90;;;;;;1533658;76;800;-61
2021/11/01 00:28:11;;;;;;;;;;;23.20;49.90;;;;;;1535913;76;791;-65
2021/11/01 00:30:12;;;;;;;;;;;23.30;49.70;;;;;;1534390;76;1575;-65
2021/11/01 00:32:13;;;;;;;;;;;23.30;49.70;;;;;;1532040;76;671;-65
2021/11/01 00:34:15;;;;;;;;;;;23.20;49.70;;;;;;1529127;76;813;-64
2021/11/01 00:36:17;;;;;;;;;;;23.30;49.80;;;;;;1534170;76;712;-64
2021/11/01 00:38:19;;;;;;;;;;;23.30;49.90;;;;;;1540602;76;735;-65
2021/11/01 00:40:21;;;;;;;;;;;23.20;49.80;;;;;;1533305;76;1141;-65
2021/11/01 00:42:23;;;;;;;;;;;23.20;49.80;;;;;;1531695;76;727;-64
2021/11/01 00:44:25;;;;;;;;;;;23.20;49.90;;;;;;1536327;76;1938;-65
2021/11/01 00:46:27;;;;;;;;;;;23.20;50.00;;;;;;1532192;76;713;-66
2021/11/01 00:48:29;;;;;;;;;;;23.20;50.00;;;;;;1532462;76;667;-65
2021/11/01 00:50:31;;;;;;;;;;;23.20;50.20;;;;;;1532190;76;1195;-66
2021/11/01 00:52:33;;;;;;;;;;;23.20;50.20;;;;;;1532983;75;634;-65
2021/11/01 00:54:36;;;;;;;;;;;23.20;50.20;;;;;;1532168;76;718;-66
2021/11/01 00:56:38;;;;;;;;;;;23.20;50.20;;;;;;1535578;76;733;-65
2021/11/01 00:58:39;;;;;;;;;;;23.20;50.20;;;;;;1535386;76;781;-65
2021/11/01 01:00:41;;;;;;;;;;;23.20;50.20;;;;;;1529414;76;1223;-66
2021/11/01 01:02:44;;;;;;;;;;;23.20;50.20;;;;;;1540331;76;875;-66
2021/11/01 01:04:46;;;;;;;;;;;23.20;50.10;;;;;;1537391;76;1930;-65
2021/11/01 01:06:47;;;;;;;;;;;23.20;50.10;;;;;;1536561;76;738;-66
2021/11/01 01:08:49;;;;;;;;;;;23.20;50.10;;;;;;1536560;76;686;-66
2021/11/01 01:10:51;;;;;;;;;;;23.20;50.20;;;;;;1538376;76;1107;-65
2021/11/01 01:12:53;;;;;;;;;;;23.20;50.20;;;;;;1543984;75;725;-66
2021/11/01 01:15:02;;;;;;;;;;;23.20;50.20;;;;;;1542825;75;738;-65
2021/11/01 01:17:01;;;;;;;;;;;23.30;50.30;;;;;;1539801;76;1642;-65
2021/11/01 01:19:03;;;;;;;;;;;23.20;50.20;;;;;;1544632;76;679;-66
2021/11/01 01:23:26;;;;;;;;;;;23.20;50.10;;;;;;1533770;76;1652;-65
2021/11/01 01:25:40;;;;;;;;;;;23.30;50.10;;;;;;1537430;76;720;-65
2021/11/01 01:27:36;;;;;;;;;;;23.20;50.10;;;;;;1508238;78;1185;-66
2021/11/01 01:29:37;;;;;;;;;;;23.20;50.10;;;;;;1533544;76;767;-66
2021/11/01 01:31:41;;;;;;;;;;;23.20;50.10;;;;;;1538724;76;1153;-66
2021/11/01 01:33:43;;;;;;;;;;;23.20;50.10;;;;;;1533049;76;762;-66
2021/11/01 01:35:45;;;;;;;;;;;23.20;50.10;;;;;;1537877;76;733;-65
2021/11/01 01:37:52;;;;;;;;;;;23.20;50.10;;;;;;1536258;76;818;-65
2021/11/01 01:39:51;;;;;;;;;;;23.20;50.10;;;;;;1535378;76;1463;-65
2021/11/01 01:41:52;;;;;;;;;;;23.20;50.10;;;;;;1534012;76;1076;-65
2021/11/01 01:43:55;;;;;;;;;;;23.20;50.10;;;;;;1546966;75;1939;-67
2021/11/01 01:45:57;;;;;;;;;;;23.20;50.10;;;;;;1551722;75;787;-66
2021/11/01 01:47:59;;;;;;;;;;;23.20;50.10;;;;;;1552641;76;682;-62
2021/11/01 01:50:02;;;;;;;;;;;23.20;50.00;;;;;;1545507;76;779;-65
2021/11/01 01:52:05;;;;;;;;;;;23.10;50.10;;;;;;1549800;75;1105;-65
2021/11/01 01:54:07;;;;;;;;;;;23.20;50.00;;;;;;1552242;75;786;-65
2021/11/01 01:56:09;;;;;;;;;;;23.30;50.20;;;;;;1550401;76;592;-65
2021/11/01 01:58:11;;;;;;;;;;;23.20;49.90;;;;;;1552058;76;754;-64
2021/11/01 02:02:32;;;;;;;;;;;23.30;50.00;;;;;;1542604;76;809;-65
2021/11/01 02:04:34;;;;;;;;;;;23.30;50.00;;;;;;1551596;76;1927;-64
2021/11/01 02:06:48;;;;;;;;;;;23.30;50.00;;;;;;1552138;76;778;-65
2021/11/01 02:08:57;;;;;;;;;;;23.30;49.90;;;;;;1551724;76;1094;-65
2021/11/01 02:11:01;;;;;;;;;;;23.30;49.90;;;;;;1552033;76;1123;-65
2021/11/01 02:13:05;;;;;;;;;;;23.30;49.80;;;;;;1541098;76;1160;-65
2021/11/01 02:15:08;;;;;;;;;;;23.40;49.80;;;;;;1549471;76;704;-66
2021/11/01 02:17:10;;;;;;;;;;;23.30;49.80;;;;;;1538686;76;1791;-66
2021/11/01 02:19:13;;;;;;;;;;;23.30;49.80;;;;;;1553105;75;689;-66
2021/11/01 02:21:18;;;;;;;;;;;23.30;49.90;;;;;;1570103;70;2075;-65
2021/11/01 02:23:22;;;;;;;;;;;23.30;50.00;;;;;;1584531;73;718;-64
2021/11/01 02:25:40;;;;;;;;;;;23.30;49.90;;;;;;1599256;73;1934;-65
2021/11/01 02:27:43;;;;;;;;;;;23.20;50.00;;;;;;1586598;73;678;-64
2021/11/01 02:29:46;;;;;;;;;;;23.20;50.00;;;;;;1594865;73;963;-64
2021/11/01 02:31:49;;;;;;;;;;;23.20;50.00;;;;;;1607557;73;1228;-62
2021/11/01 02:33:51;;;;;;;;;;;23.20;50.00;;;;;;1625226;71;771;-64
2021/11/01 02:35:53;;;;;;;;;;;23.30;50.00;;;;;;1614447;71;725;-61
2021/11/01 02:37:55;;;;;;;;;;;23.30;50.00;;;;;;1621623;71;791;-63
2021/11/01 02:39:57;;;;;;;;;;;23.30;50.00;;;;;;1624731;73;737;-64
2021/11/01 02:42:00;;;;;;;;;;;23.20;49.90;;;;;;1591178;75;1135;-64
2021/11/01 02:44:03;;;;;;;;;;;23.20;49.90;;;;;;1586920;75;1917;-64
2021/11/01 02:46:05;;;;;;;;;;;23.20;49.90;;;;;;1579996;75;668;-64
2021/11/01 02:48:07;;;;;;;;;;;23.30;50.00;;;;;;1578767;75;688;-64
2021/11/01 02:50:11;;;;;;;;;;;23.30;50.00;;;;;;1576129;75;860;-65
2021/11/01 02:52:13;;;;;;;;;;;23.20;50.00;;;;;;1581500;75;1965;-65
2021/11/01 02:54:14;;;;;;;;;;;23.20;50.00;;;;;;1576627;75;778;-65
2021/11/01 02:56:16;;;;;;;;;;;23.20;49.90;;;;;;1583372;75;919;-65
2021/11/01 02:58:18;;;;;;;;;;;23.20;50.00;;;;;;1573272;73;794;-66
2021/11/01 03:00:21;;;;;;;;;;;23.20;49.90;;;;;;1574463;75;800;-65
2021/11/01 03:02:23;;;;;;;;;;;23.20;49.90;;;;;;1580943;75;1089;-65
2021/11/01 03:04:25;;;;;;;;;;;23.10;49.90;;;;;;1575876;75;1918;-65
2021/11/01 03:06:29;;;;;;;;;;;23.20;50.00;;;;;;1567947;73;713;-66
2021/11/01 03:08:31;;;;;;;;;;;23.20;50.00;;;;;;1574337;75;735;-64
2021/11/01 03:10:33;;;;;;;;;;;23.20;49.90;;;;;;1580674;75;1159;-65
2021/11/01 03:12:35;;;;;;;;;;;23.20;50.00;;;;;;1576185;75;770;-62
2021/11/01 03:14:43;;;;;;;;;;;23.10;49.90;;;;;;1554764;75;777;-64
2021/11/01 03:16:43;;;;;;;;;;;23.20;49.90;;;;;;1573878;75;1401;-64
2021/11/01 03:18:48;;;;;;;;;;;23.10;49.90;;;;;;1581976;75;785;-65
2021/11/01 03:20:50;;;;;;;;;;;23.20;49.90;;;;;;1577735;75;1199;-66
2021/11/01 03:22:53;;;;;;;;;;;23.20;49.90;;;;;;1577678;74;748;-64
2021/11/01 03:25:03;;;;;;;;;;;23.20;50.00;;;;;;1582017;73;1938;-64
2021/11/01 03:27:05;;;;;;;;;;;23.20;50.00;;;;;;1591379;73;999;-64
2021/11/01 03:29:07;;;;;;;;;;;23.20;49.90;;;;;;1602999;73;730;-64
2021/11/01 03:31:09;;;;;;;;;;;23.20;50.00;;;;;;1613355;73;1150;-64
2021/11/01 03:33:11;;;;;;;;;;;23.20;50.00;;;;;;1592607;75;797;-65
2021/11/01 03:35:13;;;;;;;;;;;23.20;50.00;;;;;;1579537;73;832;-64
2021/11/01 03:37:17;;;;;;;;;;;23.30;50.00;;;;;;1577088;75;800;-62
2021/11/01 03:39:19;;;;;;;;;;;23.40;49.80;;;;;;1565912;75;679;-65
2021/11/01 03:41:23;;;;;;;;;;;23.40;49.80;;;;;;1575545;75;1132;-64
2021/11/01 03:43:31;;;;;;;;;;;23.40;49.80;;;;;;1574327;73;811;-63
2021/11/01 03:45:33;;;;;;;;;;;23.50;49.70;;;;;;1575039;73;1973;-64
2021/11/01 03:47:38;;;;;;;;;;;23.60;49.50;;;;;;1575969;75;721;-65
2021/11/01 03:49:41;;;;;;;;;;;23.60;49.40;;;;;;1583559;75;2049;-64
2021/11/01 03:52:06;;;;;;;;;;;23.60;49.30;;;;;;1586107;75;1147;-62
2021/11/01 03:53:53;;;;;;;;;;;23.70;49.40;;;;;;1570518;73;1703;-64
2021/11/01 03:55:55;;;;;;;;;;;23.60;49.30;;;;;;1557837;76;828;-65
2021/11/01 03:57:57;;;;;;;;;;;23.70;49.30;;;;;;1579927;75;690;-66
2021/11/01 03:59:59;;;;;;;;;;;23.60;49.40;;;;;;1581736;75;729;-64
2021/11/01 04:02:01;;;;;;;;;;;23.70;49.50;;;;;;1579704;74;1112;-66
2021/11/01 04:04:03;;;;;;;;;;;23.70;49.40;;;;;;1582764;73;680;-64
2021/11/01 04:06:05;;;;;;;;;;;23.70;49.50;;;;;;1581737;75;1913;-65
2021/11/01 04:08:07;;;;;;;;;;;23.60;49.40;;;;;;1587034;75;665;-66
2021/11/01 04:10:09;;;;;;;;;;;23.60;49.50;;;;;;1572906;75;806;-67
2021/11/01 04:12:11;;;;;;;;;;;23.60;49.60;;;;;;1583071;73;1124;-67
2021/11/01 04:14:22;;;;;;;;;;;23.50;49.70;;;;;;1581515;75;785;-67
2021/11/01 04:16:22;;;;;;;;;;;23.60;49.70;;;;;;1572972;75;1678;-67
2021/11/01 04:18:33;;;;;;;;;;;23.50;49.70;;;;;;1581832;75;1673;-65
2021/11/01 04:20:48;;;;;;;;;;;23.50;49.70;;;;;;1567896;73;1736;-65
2021/11/01 04:22:37;;;;;;;;;;;23.50;49.90;;;;;;1560584;75;1462;-66
2021/11/01 04:24:39;;;;;;;;;;;23.40;49.70;;;;;;1570214;75;1921;-65
2021/11/01 04:26:43;;;;;;;;;;;23.50;50.00;;;;;;1580250;75;808;-66
2021/11/01 04:28:44;;;;;;;;;;;23.40;49.80;;;;;;1590067;73;1600;-66
2021/11/01 04:30:52;;;;;;;;;;;23.40;49.80;;;;;;1576812;73;1163;-66
2021/11/01 04:32:54;;;;;;;;;;;23.40;49.80;;;;;;1582717;75;1577;-66
2021/11/01 04:35:00;;;;;;;;;;;23.50;49.80;;;;;;1580925;75;1658;-64
2021/11/01 04:36:57;;;;;;;;;;;23.50;49.80;;;;;;1576986;75;955;-65
2021/11/01 04:43:33;;;;;;;;;;;23.50;50.00;;;;;;1584453;73;855;-65
2021/11/01 04:53:00;;;;;;;;;;;23.40;50.10;;;;;;1620983;71;1614;-65
2021/11/01 04:54:34;;;;;;;;;;;23.30;50.10;;;;;;1605872;73;1654;-65
2021/11/01 04:56:35;;;;;;;;;;;23.40;50.10;;;;;;1626324;72;776;-64
2021/11/01 04:58:39;;;;;;;;;;;23.40;50.10;;;;;;1587506;73;1461;-64
2021/11/01 05:00:41;;;;;;;;;;;23.40;50.20;;;;;;1613078;71;1135;-64
2021/11/01 05:02:47;;;;;;;;;;;23.40;50.10;;;;;;1620024;71;671;-64
2021/11/01 05:04:48;;;;;;;;;;;23.40;50.00;;;;;;1619935;71;1927;-66
2021/11/01 05:06:56;;;;;;;;;;;23.50;50.10;;;;;;1602788;71;798;-64
2021/11/01 05:09:06;;;;;;;;;;;23.50;50.10;;;;;;1603566;71;1692;-64
2021/11/01 05:11:05;;;;;;;;;;;23.60;49.90;;;;;;1622009;71;1665;-65
2021/11/01 05:13:06;;;;;;;;;;;23.70;50.00;;;;;;1604520;73;1656;-63
2021/11/01 05:15:12;;;;;;;;;;;23.60;49.80;;;;;;1620148;71;895;-65
2021/11/01 05:17:34;;;;;;;;;;;23.60;49.70;;;;;;1579095;75;1585;-65
2021/11/01 05:19:34;;;;;;;;;;;23.70;49.90;;;;;;1567031;73;1519;-63
2021/11/01 05:21:40;;;;;;;;;;;23.70;49.80;;;;;;1573398;75;1680;-65
2021/11/01 05:23:41;;;;;;;;;;;23.70;49.80;;;;;;1578034;75;1647;-66
2021/11/01 05:29:55;;;;;;;;;;;23.70;49.70;;;;;;1546982;76;712;-67
2021/11/01 05:32:01;;;;;;;;;;;23.60;49.60;;;;;;1573538;75;1173;-65
2021/11/01 05:34:08;;;;;;;;;;;23.70;49.80;;;;;;1539662;76;1682;-66
2021/11/01 05:36:06;;;;;;;;;;;23.70;49.70;;;;;;1570620;73;1656;-66
2021/11/01 05:38:09;;;;;;;;;;;23.80;49.60;;;;;;1545170;75;759;-63
2021/11/01 05:40:11;;;;;;;;;;;23.80;49.70;;;;;;1545241;76;798;-68
2021/11/01 05:42:13;;;;;;;;;;;23.70;49.60;;;;;;1543115;76;1047;-66
2021/11/01 05:44:15;;;;;;;;;;;23.90;49.50;;;;;;1557246;76;756;-70
2021/11/01 05:46:17;;;;;;;;;;;23.90;49.50;;;;;;1539719;74;1927;-71
2021/11/01 05:48:19;;;;;;;;;;;24.00;49.30;;;;;;1614154;73;740;-72
2021/11/01 05:50:21;;;;;;;;;;;24.00;49.00;;;;;;1614172;73;797;-73
2021/11/01 05:52:28;;;;;;;;;;;24.10;48.80;;;;;;1613864;73;1116;-72
2021/11/01 05:54:30;;;;;;;;;;;24.10;48.70;;;;;;1608954;71;1141;-72
2021/11/01 05:56:56;;;;;;;;;;;24.00;48.60;;;;;;1611078;71;1628;-72
2021/11/01 06:03:18;;;;;;;;;;;23.90;48.70;;;;;;1541947;76;866;-71
2021/11/01 06:09:56;;;;;;;;;;;23.80;48.60;;;;;;1547647;73;1019;-71
2021/11/01 06:14:11;;;;;;;;;;;23.80;48.60;;;;;;1613359;71;1622;-71
2021/11/01 06:16:13;;;;;;;;;;;23.80;48.60;;;;;;1612782;73;739;-69
2021/11/01 06:18:15;;;;;;;;;;;23.90;48.80;;;;;;1605672;73;679;-68
2021/11/01 06:20:17;;;;;;;;;;;23.70;48.60;;;;;;1619387;73;713;-71
2021/11/01 06:22:19;;;;;;;;;;;23.70;48.70;;;;;;1611880;73;1085;-71
2021/11/01 06:26:31;;;;;;;;;;;23.70;48.70;;;;;;1616364;73;1901;-71
2021/11/01 06:28:33;;;;;;;;;;;23.70;48.70;;;;;;1619671;73;726;-71
2021/11/01 06:30:43;;;;;;;;;;;23.70;48.80;;;;;;1610334;73;1202;-71
2021/11/01 06:33:10;;;;;;;;;;;23.70;48.70;;;;;;1613035;71;1767;-74
2021/11/01 06:39:44;;;;;;;;;;;23.70;48.60;;;;;;1617302;73;1853;-75
2021/11/01 06:41:47;;;;;;;;;;;23.70;48.60;;;;;;1606890;73;1663;-74
2021/11/01 07:14:07;;;;;;;;;;;23.90;48.30;;;;;;1572299;73;1108;-74
2021/11/01 07:15:23;;;;;;;;;;;23.90;48.00;;;;;;1574906;75;1953;-73
2021/11/01 07:17:41;;;;;;;;;;;24.00;47.90;;;;;;1571844;75;1676;-74
2021/11/01 07:19:58;;;;;;;;;;;24.00;47.80;;;;;;1579786;73;1751;-74
2021/11/01 07:38:36;;;;;;;;;;;23.70;48.90;;;;;;1553483;75;1645;-65
2021/11/01 08:24:59;;;;;;;;;;;23.70;49.40;;;;;;1566978;74;1677;-64
2021/11/01 08:27:21;;;;;;;;;;;23.70;49.40;;;;;;1564633;74;1930;-65
2021/11/01 08:36:25;;;;;;;;;;;23.70;49.40;;;;;;1606346;72;1608;-64
2021/11/01 08:38:35;;;;;;;;;;;23.70;49.20;;;;;;1592240;72;1189;-65
2021/11/01 08:42:52;;;;;;;;;;;23.80;49.10;;;;;;1588789;72;1117;-65
2021/11/01 08:44:58;;;;;;;;;;;23.70;49.20;;;;;;1592311;72;1613;-66
2021/11/01 08:48:01;;;;;;;;;;;23.70;49.30;;;;;;1601524;72;1923;-66
2021/11/01 09:10:21;;;;;;;;;;;23.80;49.40;;;;;;1589946;72;1711;-66
2021/11/01 09:18:47;;;;;;;;;;;23.80;49.40;;;;;;1606412;72;1677;-66
2021/11/01 09:21:16;;;;;;;;;;;23.80;49.40;;;;;;1601569;73;1713;-67
2021/11/01 09:23:09;;;;;;;;;;;23.80;49.30;;;;;;1605599;72;1583;-68
2021/11/01 09:25:17;;;;;;;;;;;23.80;49.30;;;;;;1619626;72;1567;-66
2021/11/01 09:27:20;;;;;;;;;;;23.90;49.30;;;;;;1611776;72;1920;-67
2021/11/01 09:36:25;;;;;;;;;;;23.90;49.00;;;;;;1595992;72;1659;-67
2021/11/01 09:42:50;;;;;;;;;;;24.10;48.80;;;;;;1605031;72;1619;-66
2021/11/01 09:44:52;;;;;;;;;;;24.00;48.60;;;;;;1598609;72;688;-67
2021/11/01 09:46:57;;;;;;;;;;;24.00;48.80;;;;;;1600947;72;1935;-67
2021/11/01 09:49:15;;;;;;;;;;;24.00;48.80;;;;;;1594762;72;827;-67
2021/11/01 09:51:16;;;;;;;;;;;24.00;48.70;;;;;;1597056;72;1377;-66
2021/11/01 09:53:23;;;;;;;;;;;24.10;48.60;;;;;;1597652;73;707;-66
2021/11/01 09:55:47;;;;;;;;;;;24.10;48.50;;;;;;1609246;72;2096;-66
2021/11/01 10:00:07;;;;;;;;;;;24.20;48.30;;;;;;1600751;72;1651;-66
2021/11/01 10:02:10;;;;;;;;;;;24.20;48.40;;;;;;1592094;72;1136;-66
2021/11/01 10:04:17;;;;;;;;;;;24.10;48.40;;;;;;1606197;72;741;-66
2021/11/01 10:06:22;;;;;;;;;;;24.10;48.50;;;;;;1594515;72;1922;-69
2021/11/01 10:08:22;;;;;;;;;;;24.10;48.60;;;;;;1602225;73;1113;-68
2021/11/01 10:10:26;;;;;;;;;;;24.10;48.60;;;;;;1592074;73;727;-66
2021/11/01 10:12:32;;;;;;;;;;;24.00;48.50;;;;;;1596724;72;1129;-66
2021/11/01 10:14:34;;;;;;;;;;;24.00;48.60;;;;;;1613888;72;717;-66
2021/11/01 10:18:57;;;;;;;;;;;24.10;48.80;;;;;;1609671;72;1637;-66
2021/11/01 10:20:59;;;;;;;;;;;24.10;48.60;;;;;;1608420;72;1164;-66
2021/11/01 10:23:01;;;;;;;;;;;24.20;48.40;;;;;;1605484;72;792;-65
2021/11/01 10:25:03;;;;;;;;;;;24.20;48.30;;;;;;1603486;73;738;-66
2021/11/01 10:27:07;;;;;;;;;;;24.10;48.40;;;;;;1594203;72;1939;-66
2021/11/01 10:29:10;;;;;;;;;;;24.20;48.30;;;;;;1609999;72;702;-66
2021/11/01 10:31:12;;;;;;;;;;;24.20;48.20;;;;;;1592388;73;1125;-67
2021/11/01 10:33:14;;;;;;;;;;;24.20;48.20;;;;;;1601526;73;828;-66
2021/11/01 10:35:24;;;;;;;;;;;24.20;48.10;;;;;;1598980;72;718;-66
2021/11/01 10:37:27;;;;;;;;;;;24.20;48.20;;;;;;1613761;72;702;-67
2021/11/01 10:39:29;;;;;;;;;;;24.20;48.10;;;;;;1604794;72;696;-66
2021/11/01 10:42:02;;;;;;;;;;;24.20;48.10;;;;;;1595038;72;1143;-66
2021/11/01 10:58:27;;;;;;;;;;;24.30;48.00;;;;;;1600373;72;1644;-67
2021/11/01 11:13:56;;;;;;;;;;;24.20;47.80;;;;;;1590483;72;795;-65
2021/11/01 11:15:57;;;;;;;;;;;24.20;47.80;;;;;;1592256;73;1579;-65
2021/11/01 11:18:09;;;;;;;;;;;24.20;47.80;;;;;;1603569;72;1616;-66
2021/11/01 11:27:33;;;;;;;;;;;24.30;47.80;;;;;;1596041;72;1914;-65
2021/11/01 11:38:54;;;;;;;;;;;24.20;47.80;;;;;;1599180;72;1646;-66
2021/11/01 11:43:08;;;;;;;;;;;24.20;47.60;;;;;;1606618;72;2624;-66
2021/11/01 11:47:26;;;;;;;;;;;24.20;47.70;;;;;;1602125;72;1906;-67
2021/11/01 11:49:28;;;;;;;;;;;24.20;47.60;;;;;;1601071;72;892;-65
2021/11/01 11:51:30;;;;;;;;;;;24.20;47.70;;;;;;1601302;72;1120;-66
2021/11/01 11:53:33;;;;;;;;;;;24.10;47.80;;;;;;1602408;72;815;-66
2021/11/01 11:55:35;;;;;;;;;;;24.20;47.70;;;;;;1603175;72;706;-65
2021/11/01 11:57:37;;;;;;;;;;;24.20;47.60;;;;;;1599895;72;784;-66
2021/11/01 11:59:39;;;;;;;;;;;24.20;47.50;;;;;;1594058;73;788;-68
2021/11/01 12:01:42;;;;;;;;;;;24.20;47.50;;;;;;1590314;73;1121;-66
2021/11/01 12:03:44;;;;;;;;;;;24.20;47.40;;;;;;1605391;72;662;-67
2021/11/01 12:05:50;;;;;;;;;;;24.20;47.30;;;;;;1595216;72;699;-66
2021/11/01 12:08:05;;;;;;;;;;;24.30;47.40;;;;;;1601864;72;1944;-66
2021/11/01 12:10:08;;;;;;;;;;;24.30;47.40;;;;;;1603023;73;689;-68
2021/11/01 12:18:48;;;;;;;;;;;24.30;47.30;;;;;;1604043;72;1634;-68
2021/11/01 12:20:50;;;;;;;;;;;24.30;47.30;;;;;;1602127;72;1137;-65
2021/11/01 12:23:01;;;;;;;;;;;24.30;47.40;;;;;;1598087;73;769;-65
2021/11/01 12:24:58;;;;;;;;;;;24.20;47.30;;;;;;1607543;72;1091;-63
2021/11/01 12:27:02;;;;;;;;;;;24.20;47.40;;;;;;1618014;72;1929;-64
2021/11/01 12:29:06;;;;;;;;;;;24.20;47.40;;;;;;1591608;73;781;-63
2021/11/01 12:31:09;;;;;;;;;;;24.20;47.40;;;;;;1592626;72;1831;-64
2021/11/01 12:33:11;;;;;;;;;;;24.20;47.50;;;;;;1591419;73;802;-63
2021/11/01 12:35:27;;;;;;;;;;;24.10;47.60;;;;;;1602068;72;740;-63
2021/11/01 12:37:36;;;;;;;;;;;24.10;47.60;;;;;;1604134;72;1605;-65
2021/11/01 12:39:45;;;;;;;;;;;24.00;47.50;;;;;;1596163;72;1597;-65
2021/11/01 12:41:56;;;;;;;;;;;24.10;47.60;;;;;;1620448;72;1580;-65
2021/11/01 12:44:35;;;;;;;;;;;24.10;47.60;;;;;;1598569;72;1669;-65
2021/11/01 12:57:19;;;;;;;;;;;24.10;47.30;;;;;;1596498;72;1650;-65
2021/11/01 12:59:19;;;;;;;;;;;24.10;47.30;;;;;;1608901;72;1592;-65
2021/11/01 13:01:21;;;;;;;;;;;24.10;47.30;;;;;;1588376;72;1157;-65
2021/11/01 13:03:23;;;;;;;;;;;24.20;47.30;;;;;;1607963;72;762;-68
2021/11/01 13:05:27;;;;;;;;;;;24.00;47.30;;;;;;1590100;73;807;-66
2021/11/01 13:09:46;;;;;;;;;;;24.00;47.40;;;;;;1606583;72;1570;-65
2021/11/01 13:12:13;;;;;;;;;;;24.00;47.50;;;;;;1607716;72;1120;-64
2021/11/01 13:18:25;;;;;;;;;;;23.90;47.80;;;;;;1610061;72;1627;-66
2021/11/01 13:20:27;;;;;;;;;;;23.90;47.70;;;;;;1607646;72;826;-65
2021/11/01 13:22:31;;;;;;;;;;;23.90;47.60;;;;;;1610332;72;1145;-66
2021/11/01 13:24:48;;;;;;;;;;;23.90;47.70;;;;;;1604233;73;1528;-67
2021/11/01 13:36:08;;;;;;;;;;;24.10;47.40;;;;;;1604283;72;763;-65
2021/11/01 13:38:02;;;;;;;;;;;24.10;47.50;;;;;;1603837;72;1142;-66
2021/11/01 13:40:04;;;;;;;;;;;24.20;47.40;;;;;;1604838;72;1588;-63
2021/11/01 13:42:10;;;;;;;;;;;24.20;47.30;;;;;;1605182;72;1121;-64
2021/11/01 13:44:19;;;;;;;;;;;24.20;47.20;;;;;;1613974;72;711;-65
2021/11/01 13:46:22;;;;;;;;;;;24.20;47.10;;;;;;1604834;72;1344;-65
2021/11/01 13:48:30;;;;;;;;;;;24.30;47.10;;;;;;1602860;73;1928;-64
2021/11/01 13:50:37;;;;;;;;;;;24.30;47.00;;;;;;1604911;72;790;-65
2021/11/01 13:52:45;;;;;;;;;;;24.30;46.90;;;;;;1600433;73;1103;-64
2021/11/01 13:54:56;;;;;;;;;;;24.40;46.90;;;;;;1603487;72;1588;-66
2021/11/01 13:57:00;;;;;;;;;;;24.30;46.90;;;;;;1603568;72;1767;-68
2021/11/01 13:59:06;;;;;;;;;;;24.30;46.90;;;;;;1601407;72;1593;-68
2021/11/01 14:10:55;;;;;;;;;;;24.30;46.80;;;;;;1593937;73;1634;-65
2021/11/01 14:15:11;;;;;;;;;;;24.20;47.00;;;;;;1596790;73;750;-64
2021/11/01 14:17:31;;;;;;;;;;;24.20;47.00;;;;;;1600534;72;1610;-65
2021/11/01 14:28:47;;;;;;;;;;;24.20;47.00;;;;;;1492927;78;1897;-72
2021/11/01 15:11:48;;;;;;;;;;;24.20;46.80;;;;;;1487301;79;1651;-68
2021/11/01 15:13:54;;;;;;;;;;;24.20;46.80;;;;;;1482279;79;1443;-70
2021/11/01 15:15:55;;;;;;;;;;;24.20;46.80;;;;;;1476245;79;1781;-69
2021/11/01 15:18:11;;;;;;;;;;;24.20;46.70;;;;;;1480852;79;1610;-70
2021/11/01 15:20:19;;;;;;;;;;;24.30;46.80;;;;;;1476707;79;1691;-69
2021/11/01 15:40:41;;;;;;;;;;;24.10;46.90;;;;;;1484820;79;816;-69
2021/11/01 16:17:43;;;;;;;;;;;23.50;43.90;;;;;;1487756;79;875;-69
2021/11/01 16:19:39;;;;;;;;;;;23.40;44.00;;;;;;1476817;79;1491;-73
2021/11/01 16:21:33;;;;;;;;;;;23.40;44.10;;;;;;1484390;79;1190;-70
2021/11/01 16:25:39;;;;;;;;;;;23.40;44.30;;;;;;1486467;79;794;-69
2021/11/01 16:27:46;;;;;;;;;;;23.40;44.50;;;;;;1484825;79;745;-69
2021/11/01 16:29:58;;;;;;;;;;;23.40;44.60;;;;;;1488652;79;1859;-69
2021/11/01 16:31:57;;;;;;;;;;;23.50;44.80;;;;;;1485730;79;1684;-69
2021/11/01 16:34:07;;;;;;;;;;;23.40;44.70;;;;;;1480174;80;1154;-69
2021/11/01 16:36:09;;;;;;;;;;;23.50;45.00;;;;;;1483714;80;1153;-69
2021/11/01 16:38:16;;;;;;;;;;;23.40;44.90;;;;;;1485688;78;1129;-69
2021/11/01 16:40:12;;;;;;;;;;;23.40;45.00;;;;;;1473981;80;1142;-69
2021/11/01 16:42:19;;;;;;;;;;;23.40;45.10;;;;;;1485758;80;826;-69
2021/11/01 16:44:35;;;;;;;;;;;23.40;45.10;;;;;;1458831;79;1136;-69
2021/11/01 16:46:33;;;;;;;;;;;23.40;45.20;;;;;;1482070;79;1579;-69
2021/11/01 16:48:35;;;;;;;;;;;23.40;45.20;;;;;;1485289;79;1962;-69
2021/11/01 16:50:38;;;;;;;;;;;23.50;45.40;;;;;;1485006;79;764;-69
2021/11/01 16:52:41;;;;;;;;;;;23.50;45.40;;;;;;1486098;79;778;-70
2021/11/01 16:54:46;;;;;;;;;;;23.50;45.40;;;;;;1492242;79;1158;-69
2021/11/01 16:59:16;;;;;;;;;;;23.50;45.50;;;;;;1486770;79;1649;-69
2021/11/01 17:01:17;;;;;;;;;;;23.50;45.50;;;;;;1478273;78;1108;-69
2021/11/01 17:05:45;;;;;;;;;;;23.50;45.60;;;;;;1492368;79;898;-69
2021/11/01 17:07:51;;;;;;;;;;;23.50;45.70;;;;;;1489492;79;1626;-69
2021/11/01 17:10:13;;;;;;;;;;;23.50;45.60;;;;;;1487536;78;1929;-69
2021/11/01 17:25:59;;;;;;;;;;;23.40;45.70;;;;;;1431928;82;1073;-69
2021/11/01 17:30:34;;;;;;;;;;;23.50;45.90;;;;;;1432136;83;1901;-69
2021/11/01 17:34:57;;;;;;;;;;;23.50;46.00;;;;;;1485766;79;1129;-69
2021/11/01 17:36:57;;;;;;;;;;;23.50;45.90;;;;;;1486674;79;1535;-68
2021/11/01 18:42:15;;;;;;;;;;;23.60;46.50;;;;;;1431815;82;1082;-69
2021/11/01 18:51:03;;;;;;;;;;;23.60;46.50;;;;;;1492831;79;1663;-70
2021/11/01 18:53:00;;;;;;;;;;;23.60;46.50;;;;;;1490816;79;1686;-70
2021/11/01 18:55:04;;;;;;;;;;;23.60;46.50;;;;;;1491096;79;1137;-70
2021/11/01 18:57:06;;;;;;;;;;;23.50;46.50;;;;;;1492700;79;721;-69
2021/11/01 18:59:08;;;;;;;;;;;23.60;46.50;;;;;;1490699;79;697;-69
2021/11/01 19:01:11;;;;;;;;;;;23.50;46.50;;;;;;1490444;79;703;-69
2021/11/01 19:03:15;;;;;;;;;;;23.60;46.50;;;;;;1489050;79;725;-69
2021/11/01 19:05:29;;;;;;;;;;;23.50;46.50;;;;;;1487549;79;1609;-68
2021/11/01 19:15:09;;;;;;;;;;;23.50;46.50;;;;;;1486398;79;1142;-70
2021/11/01 20:03:35;;;;;;;;;;;23.70;46.50;;;;;;1482976;79;1667;-69
2021/11/01 20:05:31;;;;;;;;;;;23.60;46.40;;;;;;1470097;79;1721;-69
2021/11/01 21:26:05;;;;;;;;;;;23.70;48.10;;;;;;1553098;76;1643;-71
2021/11/01 21:28:07;;;;;;;;;;;23.80;48.20;;;;;;1546707;76;705;-71
2021/11/01 21:30:10;;;;;;;;;;;23.70;48.30;;;;;;1550090;76;1947;-69
2021/11/01 21:32:12;;;;;;;;;;;23.70;48.50;;;;;;1548531;76;1179;-70
2021/11/01 21:34:17;;;;;;;;;;;23.70;48.50;;;;;;1547681;76;825;-73
2021/11/01 21:36:24;;;;;;;;;;;23.70;48.60;;;;;;1552885;76;1167;-71
2021/11/01 21:38:24;;;;;;;;;;;23.70;48.70;;;;;;1547919;76;1176;-69
2021/11/01 21:40:26;;;;;;;;;;;23.70;48.80;;;;;;1558472;76;683;-69
2021/11/01 21:42:28;;;;;;;;;;;23.80;48.70;;;;;;1557456;74;1172;-71
2021/11/01 21:44:34;;;;;;;;;;;23.90;48.90;;;;;;1549047;76;627;-70
2021/11/01 21:46:34;;;;;;;;;;;23.80;48.70;;;;;;1557339;76;1124;-71
2021/11/01 21:48:36;;;;;;;;;;;23.80;48.80;;;;;;1556494;76;723;-70
2021/11/01 21:50:38;;;;;;;;;;;23.80;48.80;;;;;;1557017;76;1928;-71
2021/11/01 21:52:41;;;;;;;;;;;23.80;48.80;;;;;;1544352;76;1190;-70
2021/11/01 21:54:55;;;;;;;;;;;23.90;48.90;;;;;;1549069;76;750;-70
2021/11/01 21:57:01;;;;;;;;;;;23.80;48.90;;;;;;1548969;76;1168;-73
2021/11/01 21:59:22;;;;;;;;;;;23.80;48.90;;;;;;1543456;76;1088;-71
2021/11/01 22:01:30;;;;;;;;;;;23.80;48.90;;;;;;1544691;76;1093;-70
2021/11/01 22:18:15;;;;;;;;;;;23.80;49.10;;;;;;1557923;76;740;-71
2021/11/01 22:22:05;;;;;;;;;;;23.80;49.20;;;;;;1553319;74;1636;-72
2021/11/01 22:24:07;;;;;;;;;;;23.80;49.20;;;;;;1547270;76;1098;-71
2021/11/01 22:26:09;;;;;;;;;;;23.80;49.20;;;;;;1546496;76;1052;-71
2021/11/01 22:33:07;;;;;;;;;;;23.90;49.30;;;;;;1550810;74;1640;-70
2021/11/01 22:39:14;;;;;;;;;;;23.90;49.40;;;;;;1536284;76;1033;-72
2021/11/01 22:42:05;;;;;;;;;;;23.80;49.30;;;;;;1552626;75;1112;-70
2021/11/01 22:45:24;;;;;;;;;;;23.80;49.40;;;;;;1546873;76;783;-72
2021/11/01 22:56:38;;;;;;;;;;;23.80;49.60;;;;;;1547726;76;744;-70
2021/11/01 22:58:40;;;;;;;;;;;23.70;49.60;;;;;;1553627;76;1224;-72
2021/11/01 23:00:49;;;;;;;;;;;23.70;49.50;;;;;;1545025;76;1100;-70
2021/11/01 23:02:54;;;;;;;;;;;23.70;49.60;;;;;;1548351;76;1161;-71